sensor_id;sensor_type;location;lat;lon;timestamp;temperature;humidity
27697;DHT22;15105;56.514;21.002;2022-08-05T00:01:30;20.70;99.90
27697;DHT22;15105;56.514;21.002;2022-08-05T00:04:15;20.70;99.90
27697;DHT22;15105;56.514;21.002;2022-08-05T00:06:43;20.70;99.90
27697;DHT22;15105;56.514;21.002;2022-08-05T00:09:12;20.70;99.90
27697;DHT22;15105;56.514;21.002;2022-08-05T00:11:45;20.70;99.90
27697;DHT22;15105;56.514;21.002;2022-08-05T00:14:21;20.70;99.90
27697;DHT22;15105;56.514;21.002;2022-08-05T00:16:55;20.70;99.90
27697;DHT22;15105;56.514;21.002;2022-08-05T00:19:27;20.60;99.90
27697;DHT22;15105;56.514;21.002;2022-08-05T00:22:06;20.60;99.90
27697;DHT22;15105;56.514;21.002;2022-08-05T00:24:37;20.70;99.90
27697;DHT22;15105;56.514;21.002;2022-08-05T00:27:08;20.60;99.90
27697;DHT22;15105;56.514;21.002;2022-08-05T00:29:39;20.60;99.90
27697;DHT22;15105;56.514;21.002;2022-08-05T00:32:07;20.60;99.90
27697;DHT22;15105;56.514;21.002;2022-08-05T00:34:43;20.60;99.90
27697;DHT22;15105;56.514;21.002;2022-08-05T00:37:31;20.60;99.90
27697;DHT22;15105;56.514;21.002;2022-08-05T00:40:19;20.60;99.90
27697;DHT22;15105;56.514;21.002;2022-08-05T00:42:58;20.60;99.90
27697;DHT22;15105;56.514;21.002;2022-08-05T00:45:26;20.60;99.90
27697;DHT22;15105;56.514;21.002;2022-08-05T00:48:27;20.60;99.90
27697;DHT22;15105;56.514;21.002;2022-08-05T00:50:57;20.50;99.90
27697;DHT22;15105;56.514;21.002;2022-08-05T00:53:24;20.50;99.90
27697;DHT22;15105;56.514;21.002;2022-08-05T00:56:12;20.50;99.90
27697;DHT22;15105;56.514;21.002;2022-08-05T00:59:01;20.50;99.90
27697;DHT22;15105;56.514;21.002;2022-08-05T01:01:32;20.50;99.90
27697;DHT22;15105;56.514;21.002;2022-08-05T01:04:14;20.50;99.90
27697;DHT22;15105;56.514;21.002;2022-08-05T01:06:52;20.50;99.90
27697;DHT22;15105;56.514;21.002;2022-08-05T01:09:20;20.50;99.90
27697;DHT22;15105;56.514;21.002;2022-08-05T01:11:50;20.50;99.90
27697;DHT22;15105;56.514;21.002;2022-08-05T01:28:16;20.40;99.90
27697;DHT22;15105;56.514;21.002;2022-08-05T01:31:08;20.50;99.90
27697;DHT22;15105;56.514;21.002;2022-08-05T01:33:42;20.50;99.90
27697;DHT22;15105;56.514;21.002;2022-08-05T01:36:18;20.50;99.90
27697;DHT22;15105;56.514;21.002;2022-08-05T01:38:54;20.40;99.90
27697;DHT22;15105;56.514;21.002;2022-08-05T01:41:28;20.40;99.90
27697;DHT22;15105;56.514;21.002;2022-08-05T01:43:58;20.40;99.90
27697;DHT22;15105;56.514;21.002;2022-08-05T01:46:28;20.30;99.90
27697;DHT22;15105;56.514;21.002;2022-08-05T01:49:32;20.30;99.90
27697;DHT22;15105;56.514;21.002;2022-08-05T01:52:21;20.30;99.90
27697;DHT22;15105;56.514;21.002;2022-08-05T01:54:53;20.20;99.90
27697;DHT22;15105;56.514;21.002;2022-08-05T01:57:29;20.20;99.90
27697;DHT22;15105;56.514;21.002;2022-08-05T02:00:18;20.20;99.90
27697;DHT22;15105;56.514;21.002;2022-08-05T02:03:00;20.20;99.90
27697;DHT22;15105;56.514;21.002;2022-08-05T02:05:31;20.10;99.90
27697;DHT22;15105;56.514;21.002;2022-08-05T02:08:03;20.10;99.90
27697;DHT22;15105;56.514;21.002;2022-08-05T02:10:38;20.10;99.90
27697;DHT22;15105;56.514;21.002;2022-08-05T02:16:50;20.10;99.90
27697;DHT22;15105;56.514;21.002;2022-08-05T02:22:20;20.10;99.90
27697;DHT22;15105;56.514;21.002;2022-08-05T02:25:01;20.10;99.90
27697;DHT22;15105;56.514;21.002;2022-08-05T02:27:35;20.10;99.90
27697;DHT22;15105;56.514;21.002;2022-08-05T02:30:25;20.00;99.90
27697;DHT22;15105;56.514;21.002;2022-08-05T02:32:57;20.00;99.90
27697;DHT22;15105;56.514;21.002;2022-08-05T02:35:25;20.10;99.90
27697;DHT22;15105;56.514;21.002;2022-08-05T02:38:03;20.10;99.90
27697;DHT22;15105;56.514;21.002;2022-08-05T02:40:36;20.00;99.90
27697;DHT22;15105;56.514;21.002;2022-08-05T02:43:08;20.10;99.90
27697;DHT22;15105;56.514;21.002;2022-08-05T02:45:37;20.00;99.90
27697;DHT22;15105;56.514;21.002;2022-08-05T02:48:20;20.00;99.90
27697;DHT22;15105;56.514;21.002;2022-08-05T02:51:00;20.00;99.90
27697;DHT22;15105;56.514;21.002;2022-08-05T02:53:29;20.00;99.90
27697;DHT22;15105;56.514;21.002;2022-08-05T02:56:09;20.00;99.90
27697;DHT22;15105;56.514;21.002;2022-08-05T02:58:43;19.90;99.90
27697;DHT22;15105;56.514;21.002;2022-08-05T03:01:18;19.90;99.90
27697;DHT22;15105;56.514;21.002;2022-08-05T03:03:49;19.90;99.90
27697;DHT22;15105;56.514;21.002;2022-08-05T03:06:38;19.90;99.90
27697;DHT22;15105;56.514;21.002;2022-08-05T03:09:24;19.90;99.90
27697;DHT22;15105;56.514;21.002;2022-08-05T03:12:04;19.90;99.90
27697;DHT22;15105;56.514;21.002;2022-08-05T03:14:31;19.90;99.90
27697;DHT22;15105;56.514;21.002;2022-08-05T03:17:11;19.90;99.90
27697;DHT22;15105;56.514;21.002;2022-08-05T03:19:38;19.90;99.90
27697;DHT22;15105;56.514;21.002;2022-08-05T03:22:07;19.90;99.90
27697;DHT22;15105;56.514;21.002;2022-08-05T03:24:54;19.90;99.90
27697;DHT22;15105;56.514;21.002;2022-08-05T03:27:37;20.00;99.90
27697;DHT22;15105;56.514;21.002;2022-08-05T03:30:25;19.90;99.90
27697;DHT22;15105;56.514;21.002;2022-08-05T03:33:03;20.00;99.90
27697;DHT22;15105;56.514;21.002;2022-08-05T03:35:31;19.90;99.90
27697;DHT22;15105;56.514;21.002;2022-08-05T03:38:01;20.00;99.90
27697;DHT22;15105;56.514;21.002;2022-08-05T03:40:28;20.00;99.90
27697;DHT22;15105;56.514;21.002;2022-08-05T03:42:59;20.00;99.90
27697;DHT22;15105;56.514;21.002;2022-08-05T03:45:46;20.00;99.90
27697;DHT22;15105;56.514;21.002;2022-08-05T03:48:25;20.00;99.90
27697;DHT22;15105;56.514;21.002;2022-08-05T03:53:59;20.10;99.90
27697;DHT22;15105;56.514;21.002;2022-08-05T03:56:49;20.10;99.90
27697;DHT22;15105;56.514;21.002;2022-08-05T03:59:36;20.20;99.90
27697;DHT22;15105;56.514;21.002;2022-08-05T04:02:17;20.50;99.90
27697;DHT22;15105;56.514;21.002;2022-08-05T04:05:08;21.00;99.90
27697;DHT22;15105;56.514;21.002;2022-08-05T04:07:37;21.70;99.90
27697;DHT22;15105;56.514;21.002;2022-08-05T04:10:25;22.20;99.90
27697;DHT22;15105;56.514;21.002;2022-08-05T04:12:55;22.70;99.90
27697;DHT22;15105;56.514;21.002;2022-08-05T04:15:25;23.10;99.90
27697;DHT22;15105;56.514;21.002;2022-08-05T04:18:01;23.40;99.90
27697;DHT22;15105;56.514;21.002;2022-08-05T04:20:33;23.60;99.90
27697;DHT22;15105;56.514;21.002;2022-08-05T04:23:00;23.90;99.90
27697;DHT22;15105;56.514;21.002;2022-08-05T04:25:27;23.90;99.90
27697;DHT22;15105;56.514;21.002;2022-08-05T04:28:18;23.90;99.90
27697;DHT22;15105;56.514;21.002;2022-08-05T04:30:56;24.00;99.90
27697;DHT22;15105;56.514;21.002;2022-08-05T04:33:26;24.30;99.90
27697;DHT22;15105;56.514;21.002;2022-08-05T04:36:13;24.20;99.90
27697;DHT22;15105;56.514;21.002;2022-08-05T04:39:05;24.20;99.90
27697;DHT22;15105;56.514;21.002;2022-08-05T04:41:32;24.50;99.90
27697;DHT22;15105;56.514;21.002;2022-08-05T04:44:03;24.70;99.90
27697;DHT22;15105;56.514;21.002;2022-08-05T04:46:36;24.80;99.90
27697;DHT22;15105;56.514;21.002;2022-08-05T04:49:04;24.80;99.90
27697;DHT22;15105;56.514;21.002;2022-08-05T04:51:52;24.70;99.90
27697;DHT22;15105;56.514;21.002;2022-08-05T04:54:26;24.80;99.90
27697;DHT22;15105;56.514;21.002;2022-08-05T04:56:53;25.00;99.90
27697;DHT22;15105;56.514;21.002;2022-08-05T04:59:25;25.20;99.90
27697;DHT22;15105;56.514;21.002;2022-08-05T05:02:06;25.30;99.90
27697;DHT22;15105;56.514;21.002;2022-08-05T05:04:54;25.40;99.90
27697;DHT22;15105;56.514;21.002;2022-08-05T05:07:29;25.60;99.90
27697;DHT22;15105;56.514;21.002;2022-08-05T05:09:58;25.70;99.90
27697;DHT22;15105;56.514;21.002;2022-08-05T05:12:27;25.40;99.90
27697;DHT22;15105;56.514;21.002;2022-08-05T05:14:55;25.20;99.90
27697;DHT22;15105;56.514;21.002;2022-08-05T05:17:23;24.90;99.90
27697;DHT22;15105;56.514;21.002;2022-08-05T05:20:11;24.70;99.90
27697;DHT22;15105;56.514;21.002;2022-08-05T05:22:39;24.30;99.90
27697;DHT22;15105;56.514;21.002;2022-08-05T05:25:10;24.10;99.90
27697;DHT22;15105;56.514;21.002;2022-08-05T05:28:00;23.90;99.90
27697;DHT22;15105;56.514;21.002;2022-08-05T05:30:27;23.80;99.90
27697;DHT22;15105;56.514;21.002;2022-08-05T05:32:59;23.70;99.90
27697;DHT22;15105;56.514;21.002;2022-08-05T05:35:45;23.50;99.90
27697;DHT22;15105;56.514;21.002;2022-08-05T05:38:13;23.30;99.90
27697;DHT22;15105;56.514;21.002;2022-08-05T05:40:54;23.30;99.90
27697;DHT22;15105;56.514;21.002;2022-08-05T05:43:21;23.10;99.90
27697;DHT22;15105;56.514;21.002;2022-08-05T05:46:09;23.10;99.90
27697;DHT22;15105;56.514;21.002;2022-08-05T05:48:44;23.10;99.90
27697;DHT22;15105;56.514;21.002;2022-08-05T05:51:18;23.00;99.90
27697;DHT22;15105;56.514;21.002;2022-08-05T05:53:46;23.00;99.90
27697;DHT22;15105;56.514;21.002;2022-08-05T05:56:28;23.00;99.90
27697;DHT22;15105;56.514;21.002;2022-08-05T05:59:04;23.00;99.90
27697;DHT22;15105;56.514;21.002;2022-08-05T06:01:38;23.00;99.90
27697;DHT22;15105;56.514;21.002;2022-08-05T06:04:11;22.90;99.90
27697;DHT22;15105;56.514;21.002;2022-08-05T06:06:41;23.00;99.90
27697;DHT22;15105;56.514;21.002;2022-08-05T06:09:12;23.00;99.90
27697;DHT22;15105;56.514;21.002;2022-08-05T06:11:53;23.00;99.90
27697;DHT22;15105;56.514;21.002;2022-08-05T06:14:26;23.00;99.90
27697;DHT22;15105;56.514;21.002;2022-08-05T06:16:54;23.00;99.90
27697;DHT22;15105;56.514;21.002;2022-08-05T06:19:24;23.00;99.90
27697;DHT22;15105;56.514;21.002;2022-08-05T06:22:04;23.10;99.90
27697;DHT22;15105;56.514;21.002;2022-08-05T06:24:33;23.20;99.90
27697;DHT22;15105;56.514;21.002;2022-08-05T06:27:01;23.10;99.90
27697;DHT22;15105;56.514;21.002;2022-08-05T06:29:29;23.20;99.90
27697;DHT22;15105;56.514;21.002;2022-08-05T06:32:14;23.20;99.90
27697;DHT22;15105;56.514;21.002;2022-08-05T06:34:56;23.30;99.90
27697;DHT22;15105;56.514;21.002;2022-08-05T06:37:26;23.40;99.90
27697;DHT22;15105;56.514;21.002;2022-08-05T06:40:14;23.50;99.90
27697;DHT22;15105;56.514;21.002;2022-08-05T06:42:48;23.50;99.90
27697;DHT22;15105;56.514;21.002;2022-08-05T06:45:19;23.60;99.90
27697;DHT22;15105;56.514;21.002;2022-08-05T06:48:06;23.60;99.90
27697;DHT22;15105;56.514;21.002;2022-08-05T06:50:53;23.70;99.90
27697;DHT22;15105;56.514;21.002;2022-08-05T06:53:21;23.70;99.90
27697;DHT22;15105;56.514;21.002;2022-08-05T06:55:58;23.80;99.90
27697;DHT22;15105;56.514;21.002;2022-08-05T06:58:26;23.90;99.90
27697;DHT22;15105;56.514;21.002;2022-08-05T07:01:05;24.00;99.90
27697;DHT22;15105;56.514;21.002;2022-08-05T07:03:33;24.00;99.90
27697;DHT22;15105;56.514;21.002;2022-08-05T07:06:00;24.10;99.90
27697;DHT22;15105;56.514;21.002;2022-08-05T07:08:49;24.20;99.90
27697;DHT22;15105;56.514;21.002;2022-08-05T07:11:20;24.30;99.90
27697;DHT22;15105;56.514;21.002;2022-08-05T07:13:51;24.40;99.90
27697;DHT22;15105;56.514;21.002;2022-08-05T07:16:47;24.40;99.90
27697;DHT22;15105;56.514;21.002;2022-08-05T07:19:38;24.60;99.90
27697;DHT22;15105;56.514;21.002;2022-08-05T07:22:25;24.60;99.90
27697;DHT22;15105;56.514;21.002;2022-08-05T07:24:59;24.70;99.90
27697;DHT22;15105;56.514;21.002;2022-08-05T07:27:50;24.70;99.90
27697;DHT22;15105;56.514;21.002;2022-08-05T07:30:29;24.80;99.90
27697;DHT22;15105;56.514;21.002;2022-08-05T07:33:02;25.00;99.90
27697;DHT22;15105;56.514;21.002;2022-08-05T07:35:34;25.10;99.90
27697;DHT22;15105;56.514;21.002;2022-08-05T07:38:22;25.20;99.90
27697;DHT22;15105;56.514;21.002;2022-08-05T07:41:04;25.40;99.90
27697;DHT22;15105;56.514;21.002;2022-08-05T07:43:51;25.70;99.90
27697;DHT22;15105;56.514;21.002;2022-08-05T07:46:26;25.80;99.90
27697;DHT22;15105;56.514;21.002;2022-08-05T07:48:55;26.00;99.90
27697;DHT22;15105;56.514;21.002;2022-08-05T07:51:35;26.30;99.90
27697;DHT22;15105;56.514;21.002;2022-08-05T07:54:18;26.60;99.90
27697;DHT22;15105;56.514;21.002;2022-08-05T07:56:52;27.00;99.90
27697;DHT22;15105;56.514;21.002;2022-08-05T07:59:39;27.30;99.90
27697;DHT22;15105;56.514;21.002;2022-08-05T08:02:10;27.50;99.90
27697;DHT22;15105;56.514;21.002;2022-08-05T08:04:43;27.80;99.90
27697;DHT22;15105;56.514;21.002;2022-08-05T08:07:22;28.00;99.90
27697;DHT22;15105;56.514;21.002;2022-08-05T08:09:54;28.20;99.90
27697;DHT22;15105;56.514;21.002;2022-08-05T08:12:21;28.50;99.90
27697;DHT22;15105;56.514;21.002;2022-08-05T08:15:04;28.70;99.90
27697;DHT22;15105;56.514;21.002;2022-08-05T08:17:51;28.80;99.90
27697;DHT22;15105;56.514;21.002;2022-08-05T08:20:20;29.00;99.90
27697;DHT22;15105;56.514;21.002;2022-08-05T08:23:07;29.10;99.90
27697;DHT22;15105;56.514;21.002;2022-08-05T08:25:54;29.30;99.90
27697;DHT22;15105;56.514;21.002;2022-08-05T08:28:28;29.50;99.90
27697;DHT22;15105;56.514;21.002;2022-08-05T08:31:20;29.60;99.90
27697;DHT22;15105;56.514;21.002;2022-08-05T08:33:52;29.60;99.90
27697;DHT22;15105;56.514;21.002;2022-08-05T08:36:19;29.70;99.90
27697;DHT22;15105;56.514;21.002;2022-08-05T08:39:06;29.60;99.90
27697;DHT22;15105;56.514;21.002;2022-08-05T08:41:42;29.70;99.90
27697;DHT22;15105;56.514;21.002;2022-08-05T08:44:30;29.60;99.90
27697;DHT22;15105;56.514;21.002;2022-08-05T08:47:24;29.50;99.90
27697;DHT22;15105;56.514;21.002;2022-08-05T08:50:12;29.70;99.90
27697;DHT22;15105;56.514;21.002;2022-08-05T08:53:09;29.70;99.90
27697;DHT22;15105;56.514;21.002;2022-08-05T08:55:39;30.00;99.90
27697;DHT22;15105;56.514;21.002;2022-08-05T08:58:27;30.00;99.90
27697;DHT22;15105;56.514;21.002;2022-08-05T09:01:13;30.00;99.90
27697;DHT22;15105;56.514;21.002;2022-08-05T09:03:49;29.90;99.90
27697;DHT22;15105;56.514;21.002;2022-08-05T09:06:28;29.80;99.90
27697;DHT22;15105;56.514;21.002;2022-08-05T09:09:00;29.80;99.90
27697;DHT22;15105;56.514;21.002;2022-08-05T09:11:28;29.80;99.90
27697;DHT22;15105;56.514;21.002;2022-08-05T09:14:15;29.60;99.90
27697;DHT22;15105;56.514;21.002;2022-08-05T09:17:05;29.60;99.90
27697;DHT22;15105;56.514;21.002;2022-08-05T09:19:35;29.60;99.90
27697;DHT22;15105;56.514;21.002;2022-08-05T09:22:23;29.70;99.90
27697;DHT22;15105;56.514;21.002;2022-08-05T09:25:01;29.60;99.90
27697;DHT22;15105;56.514;21.002;2022-08-05T09:27:49;29.50;99.90
27697;DHT22;15105;56.514;21.002;2022-08-05T09:30:33;29.50;99.90
27697;DHT22;15105;56.514;21.002;2022-08-05T09:33:02;29.50;99.90
27697;DHT22;15105;56.514;21.002;2022-08-05T09:35:30;29.50;99.90
27697;DHT22;15105;56.514;21.002;2022-08-05T09:37:58;29.50;99.90
27697;DHT22;15105;56.514;21.002;2022-08-05T09:40:43;29.50;99.90
27697;DHT22;15105;56.514;21.002;2022-08-05T09:46:29;29.70;99.90
27697;DHT22;15105;56.514;21.002;2022-08-05T09:48:57;29.60;99.90
27697;DHT22;15105;56.514;21.002;2022-08-05T09:51:45;29.60;99.90
27697;DHT22;15105;56.514;21.002;2022-08-05T09:54:16;29.50;99.90
27697;DHT22;15105;56.514;21.002;2022-08-05T09:56:54;29.10;99.90
27697;DHT22;15105;56.514;21.002;2022-08-05T09:59:23;28.90;99.90
27697;DHT22;15105;56.514;21.002;2022-08-05T10:01:53;28.60;99.90
27697;DHT22;15105;56.514;21.002;2022-08-05T10:04:35;28.40;99.90
27697;DHT22;15105;56.514;21.002;2022-08-05T10:07:05;28.60;99.90
27697;DHT22;15105;56.514;21.002;2022-08-05T10:09:54;28.60;99.90
27697;DHT22;15105;56.514;21.002;2022-08-05T10:12:52;28.80;99.90
27697;DHT22;15105;56.514;21.002;2022-08-05T10:18:19;28.90;99.90
27697;DHT22;15105;56.514;21.002;2022-08-05T10:20:54;29.00;99.90
27697;DHT22;15105;56.514;21.002;2022-08-05T10:23:27;29.10;99.90
27697;DHT22;15105;56.514;21.002;2022-08-05T10:26:20;29.20;99.90
27697;DHT22;15105;56.514;21.002;2022-08-05T10:28:58;29.10;99.90
27697;DHT22;15105;56.514;21.002;2022-08-05T10:31:25;29.10;99.90
27697;DHT22;15105;56.514;21.002;2022-08-05T10:34:13;29.10;99.90
27697;DHT22;15105;56.514;21.002;2022-08-05T10:36:42;29.10;99.90
27697;DHT22;15105;56.514;21.002;2022-08-05T10:39:18;29.10;99.90
27697;DHT22;15105;56.514;21.002;2022-08-05T10:42:12;29.00;99.90
27697;DHT22;15105;56.514;21.002;2022-08-05T10:45:00;29.10;99.90
27697;DHT22;15105;56.514;21.002;2022-08-05T10:47:46;29.10;99.90
27697;DHT22;15105;56.514;21.002;2022-08-05T10:50:59;29.00;99.90
27697;DHT22;15105;56.514;21.002;2022-08-05T10:53:53;29.00;99.90
27697;DHT22;15105;56.514;21.002;2022-08-05T10:56:23;29.00;99.90
27697;DHT22;15105;56.514;21.002;2022-08-05T11:01:37;28.90;99.90
27697;DHT22;15105;56.514;21.002;2022-08-05T11:04:26;28.80;99.90
27697;DHT22;15105;56.514;21.002;2022-08-05T11:17:53;28.50;99.90
27697;DHT22;15105;56.514;21.002;2022-08-05T11:20:39;28.50;99.90
27697;DHT22;15105;56.514;21.002;2022-08-05T11:28:59;28.50;99.90
27697;DHT22;15105;56.514;21.002;2022-08-05T11:31:40;28.50;99.90
27697;DHT22;15105;56.514;21.002;2022-08-05T11:34:40;28.50;99.90
27697;DHT22;15105;56.514;21.002;2022-08-05T11:37:40;28.30;99.90
27697;DHT22;15105;56.514;21.002;2022-08-05T11:43:30;28.50;99.90
27697;DHT22;15105;56.514;21.002;2022-08-05T11:46:25;28.50;99.90
27697;DHT22;15105;56.514;21.002;2022-08-05T11:49:03;28.60;99.90
27697;DHT22;15105;56.514;21.002;2022-08-05T11:51:34;28.40;99.90
27697;DHT22;15105;56.514;21.002;2022-08-05T11:54:24;28.30;99.90
27697;DHT22;15105;56.514;21.002;2022-08-05T11:57:02;28.20;99.90
27697;DHT22;15105;56.514;21.002;2022-08-05T11:59:49;28.20;99.90
27697;DHT22;15105;56.514;21.002;2022-08-05T12:02:27;28.10;99.90
27697;DHT22;15105;56.514;21.002;2022-08-05T12:05:02;28.00;99.90
27697;DHT22;15105;56.514;21.002;2022-08-05T12:07:35;27.90;99.90
27697;DHT22;15105;56.514;21.002;2022-08-05T12:10:25;28.00;99.90
27697;DHT22;15105;56.514;21.002;2022-08-05T12:13:11;28.00;99.90
27697;DHT22;15105;56.514;21.002;2022-08-05T12:15:43;27.80;99.90
27697;DHT22;15105;56.514;21.002;2022-08-05T12:18:34;27.70;99.90
27697;DHT22;15105;56.514;21.002;2022-08-05T12:21:46;27.70;99.90
27697;DHT22;15105;56.514;21.002;2022-08-05T12:24:07;27.60;99.90
27697;DHT22;15105;56.514;21.002;2022-08-05T12:29:12;27.30;99.90
27697;DHT22;15105;56.514;21.002;2022-08-05T12:31:51;27.30;99.90
27697;DHT22;15105;56.514;21.002;2022-08-05T12:34:31;27.20;99.90
27697;DHT22;15105;56.514;21.002;2022-08-05T12:37:06;27.10;99.90
27697;DHT22;15105;56.514;21.002;2022-08-05T12:39:49;27.00;99.90
27697;DHT22;15105;56.514;21.002;2022-08-05T12:42:19;26.80;99.90
27697;DHT22;15105;56.514;21.002;2022-08-05T12:44:59;26.80;99.90
27697;DHT22;15105;56.514;21.002;2022-08-05T12:47:28;26.90;99.90
27697;DHT22;15105;56.514;21.002;2022-08-05T12:49:58;26.90;99.90
27697;DHT22;15105;56.514;21.002;2022-08-05T12:52:34;27.00;99.90
27697;DHT22;15105;56.514;21.002;2022-08-05T12:55:22;27.00;99.90
27697;DHT22;15105;56.514;21.002;2022-08-05T12:57:55;27.00;99.90
27697;DHT22;15105;56.514;21.002;2022-08-05T13:00:44;27.00;99.90
27697;DHT22;15105;56.514;21.002;2022-08-05T13:03:37;26.80;99.90
27697;DHT22;15105;56.514;21.002;2022-08-05T13:06:17;26.70;99.90
27697;DHT22;15105;56.514;21.002;2022-08-05T13:08:46;26.70;99.90
27697;DHT22;15105;56.514;21.002;2022-08-05T13:11:22;26.50;99.90
27697;DHT22;15105;56.514;21.002;2022-08-05T13:14:17;26.40;99.90
27697;DHT22;15105;56.514;21.002;2022-08-05T13:16:55;26.30;99.90
27697;DHT22;15105;56.514;21.002;2022-08-05T13:19:24;26.30;99.90
27697;DHT22;15105;56.514;21.002;2022-08-05T13:21:52;26.40;99.90
27697;DHT22;15105;56.514;21.002;2022-08-05T13:24:22;26.40;99.90
27697;DHT22;15105;56.514;21.002;2022-08-05T13:27:10;26.40;99.90
27697;DHT22;15105;56.514;21.002;2022-08-05T13:29:57;26.40;99.90
27697;DHT22;15105;56.514;21.002;2022-08-05T13:32:44;26.50;99.90
27697;DHT22;15105;56.514;21.002;2022-08-05T13:35:19;26.40;99.90
27697;DHT22;15105;56.514;21.002;2022-08-05T13:37:51;26.40;99.90
27697;DHT22;15105;56.514;21.002;2022-08-05T13:40:21;26.30;99.90
27697;DHT22;15105;56.514;21.002;2022-08-05T13:43:08;26.40;99.90
27697;DHT22;15105;56.514;21.002;2022-08-05T13:45:38;26.30;99.90
27697;DHT22;15105;56.514;21.002;2022-08-05T13:48:08;26.30;99.90
27697;DHT22;15105;56.514;21.002;2022-08-05T13:51:10;26.20;99.90
27697;DHT22;15105;56.514;21.002;2022-08-05T13:53:59;26.20;99.90
27697;DHT22;15105;56.514;21.002;2022-08-05T13:56:28;26.30;99.90
27697;DHT22;15105;56.514;21.002;2022-08-05T13:58:55;26.40;99.90
27697;DHT22;15105;56.514;21.002;2022-08-05T14:01:31;26.30;99.90
27697;DHT22;15105;56.514;21.002;2022-08-05T14:04:12;26.30;99.90
27697;DHT22;15105;56.514;21.002;2022-08-05T14:06:59;26.30;99.90
27697;DHT22;15105;56.514;21.002;2022-08-05T14:09:46;26.30;99.90
27697;DHT22;15105;56.514;21.002;2022-08-05T14:12:15;26.10;99.90
27697;DHT22;15105;56.514;21.002;2022-08-05T14:14:58;25.80;99.90
27697;DHT22;15105;56.514;21.002;2022-08-05T14:17:28;25.50;99.90
27697;DHT22;15105;56.514;21.002;2022-08-05T14:19:55;25.40;99.90
27697;DHT22;15105;56.514;21.002;2022-08-05T14:22:29;25.20;99.90
27697;DHT22;15105;56.514;21.002;2022-08-05T14:25:03;25.10;99.90
27697;DHT22;15105;56.514;21.002;2022-08-05T14:27:40;25.20;99.90
27697;DHT22;15105;56.514;21.002;2022-08-05T14:30:13;25.20;99.90
27697;DHT22;15105;56.514;21.002;2022-08-05T14:32:46;25.30;99.90
27697;DHT22;15105;56.514;21.002;2022-08-05T14:35:13;25.40;99.90
27697;DHT22;15105;56.514;21.002;2022-08-05T14:37:40;25.60;99.90
27697;DHT22;15105;56.514;21.002;2022-08-05T14:40:14;25.70;99.90
27697;DHT22;15105;56.514;21.002;2022-08-05T14:42:42;25.80;99.90
27697;DHT22;15105;56.514;21.002;2022-08-05T14:45:11;25.90;99.90
27697;DHT22;15105;56.514;21.002;2022-08-05T14:47:38;25.80;99.90
27697;DHT22;15105;56.514;21.002;2022-08-05T14:50:25;25.90;99.90
27697;DHT22;15105;56.514;21.002;2022-08-05T14:52:52;25.90;99.90
27697;DHT22;15105;56.514;21.002;2022-08-05T14:55:25;26.00;99.90
27697;DHT22;15105;56.514;21.002;2022-08-05T14:58:06;25.90;99.90
27697;DHT22;15105;56.514;21.002;2022-08-05T15:00:38;26.00;99.90
27697;DHT22;15105;56.514;21.002;2022-08-05T15:03:29;26.10;99.90
27697;DHT22;15105;56.514;21.002;2022-08-05T15:06:00;26.10;99.90
27697;DHT22;15105;56.514;21.002;2022-08-05T15:08:42;26.10;99.90
27697;DHT22;15105;56.514;21.002;2022-08-05T15:11:30;26.10;99.90
27697;DHT22;15105;56.514;21.002;2022-08-05T15:14:18;26.10;99.90
27697;DHT22;15105;56.514;21.002;2022-08-05T15:17:03;26.20;99.90
27697;DHT22;15105;56.514;21.002;2022-08-05T15:19:35;26.20;99.90
27697;DHT22;15105;56.514;21.002;2022-08-05T15:22:04;26.20;99.90
27697;DHT22;15105;56.514;21.002;2022-08-05T15:24:31;26.30;99.90
27697;DHT22;15105;56.514;21.002;2022-08-05T15:26:58;26.30;99.90
27697;DHT22;15105;56.514;21.002;2022-08-05T15:29:25;26.30;99.90
27697;DHT22;15105;56.514;21.002;2022-08-05T15:31:56;26.30;99.90
27697;DHT22;15105;56.514;21.002;2022-08-05T15:34:29;26.30;99.90
27697;DHT22;15105;56.514;21.002;2022-08-05T15:37:00;26.30;99.90
27697;DHT22;15105;56.514;21.002;2022-08-05T15:39:33;26.40;99.90
27697;DHT22;15105;56.514;21.002;2022-08-05T15:42:20;26.40;99.90
27697;DHT22;15105;56.514;21.002;2022-08-05T15:45:07;26.40;99.90
27697;DHT22;15105;56.514;21.002;2022-08-05T15:47:37;26.50;99.90
27697;DHT22;15105;56.514;21.002;2022-08-05T15:50:06;26.50;99.90
27697;DHT22;15105;56.514;21.002;2022-08-05T15:52:34;26.50;99.90
27697;DHT22;15105;56.514;21.002;2022-08-05T15:55:20;26.50;99.90
27697;DHT22;15105;56.514;21.002;2022-08-05T15:57:51;26.50;99.90
27697;DHT22;15105;56.514;21.002;2022-08-05T16:00:19;26.50;99.90
27697;DHT22;15105;56.514;21.002;2022-08-05T16:03:06;26.60;99.90
27697;DHT22;15105;56.514;21.002;2022-08-05T16:05:33;26.60;99.90
27697;DHT22;15105;56.514;21.002;2022-08-05T16:08:04;26.70;99.90
27697;DHT22;15105;56.514;21.002;2022-08-05T16:10:31;26.70;99.90
27697;DHT22;15105;56.514;21.002;2022-08-05T16:12:58;26.70;99.90
27697;DHT22;15105;56.514;21.002;2022-08-05T16:15:25;26.70;99.90
27697;DHT22;15105;56.514;21.002;2022-08-05T16:17:59;26.60;99.90
27697;DHT22;15105;56.514;21.002;2022-08-05T16:20:29;26.50;99.90
27697;DHT22;15105;56.514;21.002;2022-08-05T16:22:58;26.40;99.90
27697;DHT22;15105;56.514;21.002;2022-08-05T16:25:26;26.30;99.90
27697;DHT22;15105;56.514;21.002;2022-08-05T16:28:03;26.10;99.90
27697;DHT22;15105;56.514;21.002;2022-08-05T16:30:35;26.00;99.90
27697;DHT22;15105;56.514;21.002;2022-08-05T16:33:02;25.90;99.90
27697;DHT22;15105;56.514;21.002;2022-08-05T16:35:29;25.80;99.90
27697;DHT22;15105;56.514;21.002;2022-08-05T16:38:01;25.80;99.90
27697;DHT22;15105;56.514;21.002;2022-08-05T16:40:50;25.70;99.90
27697;DHT22;15105;56.514;21.002;2022-08-05T16:43:28;25.60;99.90
27697;DHT22;15105;56.514;21.002;2022-08-05T16:45:56;25.50;99.90
27697;DHT22;15105;56.514;21.002;2022-08-05T16:48:34;25.50;99.90
27697;DHT22;15105;56.514;21.002;2022-08-05T16:51:04;25.60;99.90
27697;DHT22;15105;56.514;21.002;2022-08-05T16:53:40;25.60;99.90
27697;DHT22;15105;56.514;21.002;2022-08-05T16:56:29;25.60;99.90
27697;DHT22;15105;56.514;21.002;2022-08-05T16:59:04;25.60;99.90
27697;DHT22;15105;56.514;21.002;2022-08-05T17:01:37;25.70;99.90
27697;DHT22;15105;56.514;21.002;2022-08-05T17:04:25;25.70;99.90
27697;DHT22;15105;56.514;21.002;2022-08-05T17:06:57;25.70;99.90
27697;DHT22;15105;56.514;21.002;2022-08-05T17:09:37;25.80;99.90
27697;DHT22;15105;56.514;21.002;2022-08-05T17:12:24;25.80;99.90